This is the latest recevied weather packets stored in our database for station/object EA1FWM-13. If no packets are shown the sender has not sent any weather packets the latest 10 day(s).
| Time | Temp. | Humidity | Pressure | Rain* | Wind** | Luminosity | Snow |
|---|---|---|---|---|---|---|---|
| 1777668771 | 15.56° C | 72% | 1020.7 hPa | - | - | - | - |
| 1777667870 | 16.11° C | 71% | 1020.7 hPa | - | - | - | - |
| 1777666969 | 16.11° C | 70% | 1020.7 hPa | - | - | - | - |
| 1777666069 | 16.67° C | 70% | 1020.6 hPa | - | - | - | - |
| 1777665168 | 16.67° C | 69% | 1020.3 hPa | - | - | - | - |
| 1777664267 | 17.22° C | 68% | 1020.2 hPa | - | - | - | - |
| 1777663366 | 17.78° C | 67% | 1020.1 hPa | - | - | - | - |
| 1777662465 | 17.78° C | 68% | 1019.6 hPa | - | - | - | - |
| 1777661564 | 18.33° C | 66% | 1019.7 hPa | - | - | - | - |
| 1777660663 | 18.89° C | 65% | 1019.4 hPa | - | - | - | - |
| 1777659763 | 18.89° C | 64% | 1019.2 hPa | - | - | - | - |
| 1777658862 | 19.44° C | 64% | 1019 hPa | - | - | - | - |
| 1777657961 | 19.44° C | 62% | 1019 hPa | - | - | - | - |
| 1777657060 | 20° C | 61% | 1019 hPa | - | - | - | - |
| 1777656159 | 21.11° C | 58% | 1019 hPa | - | - | - | - |
| 1777655258 | 21.67° C | 56% | 1019 hPa | - | - | - | - |
| 1777654357 | 22.78° C | 52% | 1019 hPa | - | - | - | - |
| 1777653457 | 23.33° C | 49% | 1018.9 hPa | - | - | - | - |
| 1777652556 | 23.33° C | 51% | 1018.9 hPa | - | - | - | - |
| 1777651655 | 23.33° C | 49% | 1019 hPa | - | - | - | - |
| 1777650754 | 24.44° C | 49% | 1019.1 hPa | - | - | - | - |
| 1777649853 | 23.33° C | 51% | 1019.1 hPa | - | - | - | - |
| 1777648952 | 22.22° C | 54% | 1019.2 hPa | - | - | - | - |
| 1777648051 | 23.33° C | 50% | 1019.4 hPa | - | - | - | - |
| 1777647150 | 21.67° C | 53% | 1019.5 hPa | - | - | - | - |
* Rain since midnight (hover to see other rain measurements)
** Current wind speed in m/s (hover to see current wind gust speed)